createdAt,value
2022-10-20T00:01:02.672Z,82
2022-10-20T00:02:09.766Z,82
2022-10-20T00:03:16.980Z,82
2022-10-20T00:04:24.019Z,82
2022-10-20T00:05:31.061Z,82
2022-10-20T00:07:44.747Z,82
2022-10-20T00:08:51.995Z,82
2022-10-20T00:09:59.006Z,82
2022-10-20T00:11:06.069Z,82
2022-10-20T00:12:12.655Z,82
2022-10-20T00:13:20.077Z,82
2022-10-20T00:14:27.089Z,82
2022-10-20T00:15:34.025Z,82
2022-10-20T00:16:41.068Z,82
2022-10-20T00:17:47.680Z,82
2022-10-20T00:18:54.824Z,82
2022-10-20T00:20:02.036Z,82
2022-10-20T00:21:08.971Z,82
2022-10-20T00:22:16.137Z,82
2022-10-20T00:23:22.657Z,82
2022-10-20T00:24:29.827Z,82
2022-10-20T00:25:36.873Z,82
2022-10-20T00:26:44.022Z,82
2022-10-20T00:27:51.110Z,82
2022-10-20T00:28:57.737Z,82
2022-10-20T00:30:04.796Z,82
2022-10-20T00:31:11.849Z,82
2022-10-20T00:32:19.024Z,82
2022-10-20T00:33:26.129Z,82
2022-10-20T00:35:39.848Z,82
2022-10-20T00:36:50.422Z,82
2022-10-20T00:37:54.026Z,82
2022-10-20T00:40:07.695Z,82
2022-10-20T00:41:14.827Z,82
2022-10-20T00:42:21.865Z,82
2022-10-20T00:43:29.036Z,82
2022-10-20T00:44:36.249Z,82
2022-10-20T00:45:42.780Z,82
2022-10-20T00:46:49.827Z,82
2022-10-20T00:47:56.928Z,82
2022-10-20T00:49:03.500Z,82
2022-10-20T00:50:10.574Z,82
2022-10-20T00:51:17.927Z,82
2022-10-20T00:52:24.827Z,82
2022-10-20T00:53:31.948Z,82
2022-10-20T00:54:39.055Z,82
2022-10-20T00:55:45.677Z,82
2022-10-20T00:56:52.857Z,82
2022-10-20T00:57:59.819Z,82
2022-10-20T00:59:06.923Z,82
2022-10-20T01:00:14.151Z,83
2022-10-20T01:01:20.774Z,83
2022-10-20T01:02:27.923Z,83
2022-10-20T01:03:34.879Z,83
2022-10-20T01:04:41.913Z,83
2022-10-20T01:05:49.058Z,83
2022-10-20T01:06:55.667Z,83
2022-10-20T01:08:02.740Z,83
2022-10-20T01:09:09.975Z,83
2022-10-20T01:11:24.619Z,83
2022-10-20T01:12:30.637Z,84
2022-10-20T01:13:37.767Z,84
2022-10-20T01:14:44.851Z,84
2022-10-20T01:15:51.912Z,84
2022-10-20T01:16:58.507Z,84
2022-10-20T01:18:05.674Z,84
2022-10-20T01:19:12.761Z,84
2022-10-20T01:21:27.055Z,84
2022-10-20T01:22:35.473Z,84
2022-10-20T01:23:40.618Z,84
2022-10-20T01:24:47.781Z,84
2022-10-20T01:25:54.899Z,84
2022-10-20T01:27:01.939Z,84
2022-10-20T01:28:09.035Z,84
2022-10-20T01:29:15.698Z,84
2022-10-20T01:30:22.803Z,84
2022-10-20T01:31:29.963Z,84
2022-10-20T01:32:37.045Z,84
2022-10-20T01:33:44.111Z,84
2022-10-20T01:34:52.965Z,84
2022-10-20T01:35:57.778Z,84
2022-10-20T01:37:04.865Z,84
2022-10-20T01:38:12.031Z,84
2022-10-20T01:39:19.054Z,84
2022-10-20T01:40:25.708Z,84
2022-10-20T01:41:32.791Z,84
2022-10-20T01:42:39.902Z,84
2022-10-20T01:43:47.036Z,84
2022-10-20T01:44:53.597Z,84
2022-10-20T01:46:00.703Z,84
2022-10-20T01:47:07.802Z,83
2022-10-20T01:48:14.890Z,84
2022-10-20T01:49:22.012Z,83
2022-10-20T01:50:29.210Z,83
2022-10-20T01:51:35.714Z,83
2022-10-20T01:52:42.800Z,83
2022-10-20T01:53:49.919Z,83
2022-10-20T01:54:57.048Z,83
2022-10-20T01:56:04.178Z,83
2022-10-20T01:57:10.695Z,83
2022-10-20T01:58:17.819Z,83
2022-10-20T01:59:24.956Z,83
2022-10-20T02:00:32.033Z,83
2022-10-20T02:03:52.811Z,83
2022-10-20T02:04:59.936Z,83
2022-10-20T02:06:06.620Z,83
2022-10-20T02:07:13.607Z,83
2022-10-20T02:08:20.727Z,83
2022-10-20T02:09:27.868Z,83
2022-10-20T02:10:34.947Z,83
2022-10-20T02:11:41.986Z,83
2022-10-20T02:12:48.638Z,83
2022-10-20T02:15:02.832Z,83
2022-10-20T02:16:09.955Z,83
2022-10-20T02:17:17.080Z,83
2022-10-20T02:18:23.663Z,83
2022-10-20T02:19:30.726Z,83
2022-10-20T02:20:37.842Z,83
2022-10-20T02:21:45.037Z,83
2022-10-20T02:22:52.051Z,83
2022-10-20T02:23:58.725Z,83
2022-10-20T02:25:05.782Z,83
2022-10-20T02:26:12.900Z,83
2022-10-20T02:27:20.028Z,83
2022-10-20T02:28:27.073Z,83
2022-10-20T02:29:33.647Z,83
2022-10-20T02:30:40.796Z,83
2022-10-20T02:31:47.860Z,83
2022-10-20T02:32:54.953Z,83
2022-10-20T02:35:08.641Z,83
2022-10-20T02:36:15.789Z,83
2022-10-20T02:37:22.868Z,83
2022-10-20T02:38:30.102Z,83
2022-10-20T02:39:37.055Z,83
2022-10-20T02:40:43.706Z,83
2022-10-20T02:41:50.733Z,83
2022-10-20T02:44:05.007Z,83
2022-10-20T02:45:12.037Z,83
2022-10-20T02:46:18.657Z,83
2022-10-20T02:47:25.798Z,83
2022-10-20T02:48:32.866Z,83
2022-10-20T02:49:39.973Z,83
2022-10-20T02:50:47.132Z,83
2022-10-20T02:51:53.654Z,83
2022-10-20T02:53:00.731Z,83
2022-10-20T02:54:07.912Z,83
2022-10-20T02:55:15.031Z,83
2022-10-20T02:56:22.538Z,83
2022-10-20T02:57:28.715Z,83
2022-10-20T02:58:35.782Z,83
2022-10-20T02:59:42.868Z,83
2022-10-20T03:00:51.165Z,83
2022-10-20T03:01:56.627Z,83
2022-10-20T03:03:03.708Z,83
2022-10-20T03:04:10.842Z,83
2022-10-20T03:05:17.935Z,83
2022-10-20T03:06:25.070Z,83
2022-10-20T03:07:32.105Z,83
2022-10-20T03:08:38.703Z,84
2022-10-20T03:09:45.769Z,84
2022-10-20T03:10:52.999Z,84
2022-10-20T03:12:00.061Z,84
2022-10-20T03:13:07.103Z,84
2022-10-20T03:14:13.769Z,84
2022-10-20T03:15:20.865Z,84
2022-10-20T03:16:27.932Z,84
2022-10-20T03:18:41.614Z,84
2022-10-20T03:19:48.725Z,84
2022-10-20T03:20:55.852Z,84
2022-10-20T03:22:02.919Z,84
2022-10-20T03:23:10.050Z,84
2022-10-20T03:25:23.708Z,84
2022-10-20T03:26:30.825Z,84
2022-10-20T03:27:38.283Z,84
2022-10-20T03:28:45.060Z,84
2022-10-20T03:32:05.898Z,84
2022-10-20T03:33:12.948Z,84
2022-10-20T03:34:20.021Z,84
2022-10-20T03:35:26.668Z,83
2022-10-20T03:36:33.738Z,84
2022-10-20T03:37:40.855Z,84
2022-10-20T03:38:47.930Z,84
2022-10-20T03:39:55.068Z,84
2022-10-20T03:42:08.782Z,83
2022-10-20T03:43:15.897Z,84
2022-10-20T03:44:22.948Z,84
2022-10-20T03:45:30.106Z,83
2022-10-20T03:46:36.698Z,83
2022-10-20T03:47:43.695Z,83
2022-10-20T03:48:50.847Z,83
2022-10-20T03:49:58.038Z,83
2022-10-20T03:51:05.103Z,83
2022-10-20T03:52:11.691Z,83
2022-10-20T03:53:18.793Z,83
2022-10-20T03:54:25.900Z,83
2022-10-20T03:55:32.978Z,83
2022-10-20T03:56:40.098Z,83
2022-10-20T03:58:53.877Z,83
2022-10-20T04:00:00.866Z,83
2022-10-20T04:01:08.085Z,83
2022-10-20T04:02:15.106Z,83
2022-10-20T04:03:21.718Z,83
2022-10-20T04:04:28.798Z,83
2022-10-20T04:06:42.989Z,83
2022-10-20T04:07:50.109Z,83
2022-10-20T04:08:56.796Z,83
2022-10-20T04:10:03.777Z,83
2022-10-20T04:11:10.951Z,83
2022-10-20T04:12:18.027Z,83
2022-10-20T04:13:25.131Z,83
2022-10-20T04:14:31.659Z,83
2022-10-20T04:15:38.775Z,83
2022-10-20T04:16:45.895Z,83
2022-10-20T04:17:53.026Z,83
2022-10-20T04:19:00.126Z,83
2022-10-20T04:20:06.738Z,83
2022-10-20T04:22:20.879Z,83
2022-10-20T04:23:28.580Z,83
2022-10-20T04:24:34.576Z,82
2022-10-20T04:27:55.894Z,82
2022-10-20T04:29:03.018Z,82
2022-10-20T04:30:09.619Z,82
2022-10-20T04:31:16.686Z,82
2022-10-20T04:32:24.364Z,82
2022-10-20T04:33:30.881Z,82
2022-10-20T04:34:38.048Z,82
2022-10-20T04:35:44.671Z,82
2022-10-20T04:36:51.803Z,82
2022-10-20T04:37:58.804Z,82
2022-10-20T04:39:05.916Z,82
2022-10-20T04:40:12.983Z,82
2022-10-20T04:41:19.620Z,82
2022-10-20T04:42:26.731Z,82
2022-10-20T04:43:33.818Z,82
2022-10-20T04:44:40.912Z,82
2022-10-20T04:45:48.046Z,82
2022-10-20T04:48:01.776Z,82
2022-10-20T04:49:08.852Z,82
2022-10-20T04:50:15.958Z,82
2022-10-20T04:51:23.015Z,82
2022-10-20T04:52:29.658Z,82
2022-10-20T04:53:36.732Z,82
2022-10-20T04:54:43.827Z,82
2022-10-20T04:55:50.910Z,83
2022-10-20T04:56:58.147Z,83
2022-10-20T04:58:09.754Z,83
2022-10-20T05:00:18.377Z,83
2022-10-20T05:01:26.161Z,83
2022-10-20T05:02:35.607Z,83
2022-10-20T05:03:39.630Z,83
2022-10-20T05:04:47.774Z,83
2022-10-20T05:05:53.868Z,83
2022-10-20T05:07:01.021Z,83
2022-10-20T05:08:08.079Z,83
2022-10-20T05:09:14.831Z,83
2022-10-20T05:10:21.738Z,83
2022-10-20T05:11:28.881Z,83
2022-10-20T05:12:36.110Z,83
2022-10-20T05:13:43.028Z,83
2022-10-20T05:14:49.657Z,83
2022-10-20T05:15:56.847Z,83
2022-10-20T05:17:06.504Z,83
2022-10-20T05:18:10.977Z,83
2022-10-20T05:19:18.108Z,83
2022-10-20T05:20:24.686Z,83
2022-10-20T05:21:31.872Z,83
2022-10-20T05:22:39.302Z,83
2022-10-20T05:23:46.019Z,83
2022-10-20T05:25:59.787Z,83
2022-10-20T05:27:06.785Z,83
2022-10-20T05:29:20.969Z,83
2022-10-20T05:30:28.070Z,83
2022-10-20T05:31:34.705Z,83
2022-10-20T05:32:41.748Z,83
2022-10-20T05:33:48.871Z,83
2022-10-20T05:34:56.018Z,83
2022-10-20T05:36:03.196Z,83
2022-10-20T05:37:09.705Z,83
2022-10-20T05:38:16.934Z,83
2022-10-20T05:39:23.892Z,83
2022-10-20T05:40:31.027Z,83
2022-10-20T05:41:39.043Z,83
2022-10-20T05:42:44.700Z,84
2022-10-20T05:43:51.763Z,83
2022-10-20T05:44:58.939Z,84
2022-10-20T05:46:06.565Z,84
2022-10-20T05:47:12.575Z,84
2022-10-20T05:48:19.741Z,84
2022-10-20T05:49:26.896Z,84
2022-10-20T05:50:33.949Z,84
2022-10-20T05:51:41.058Z,84
2022-10-20T05:52:47.597Z,84
2022-10-20T05:53:54.741Z,14
2022-10-20T05:55:01.770Z,84
2022-10-20T05:57:16.059Z,84
2022-10-20T05:58:23.056Z,84
2022-10-20T05:59:29.756Z,84
2022-10-20T06:00:36.813Z,84
2022-10-20T06:01:43.981Z,84
2022-10-20T06:02:51.019Z,84
2022-10-20T06:03:57.567Z,84
2022-10-20T06:05:04.754Z,84
2022-10-20T06:06:11.851Z,84
2022-10-20T06:07:18.967Z,85
2022-10-20T06:08:26.076Z,84
2022-10-20T06:10:39.758Z,85
2022-10-20T06:11:46.945Z,85
2022-10-20T06:12:53.967Z,85
2022-10-20T06:14:01.042Z,85
2022-10-20T06:15:07.618Z,85
2022-10-20T06:16:14.783Z,85
2022-10-20T06:17:21.849Z,85
2022-10-20T06:18:28.975Z,86
2022-10-20T06:19:36.087Z,86
2022-10-20T06:20:42.638Z,86
2022-10-20T06:21:49.902Z,86
2022-10-20T06:22:56.907Z,86
2022-10-20T06:24:03.976Z,86
2022-10-20T06:25:11.059Z,86
2022-10-20T06:26:17.858Z,86
2022-10-20T06:29:39.012Z,86
2022-10-20T06:30:46.070Z,86
2022-10-20T06:31:52.741Z,86
2022-10-20T06:32:59.789Z,86
2022-10-20T06:34:06.902Z,86
2022-10-20T06:35:13.988Z,86
2022-10-20T06:36:20.532Z,86
2022-10-20T06:37:27.694Z,86
2022-10-20T06:38:34.817Z,86
2022-10-20T06:39:41.868Z,86
2022-10-20T06:40:49.004Z,86
2022-10-20T06:41:56.175Z,87
2022-10-20T06:43:02.662Z,87
2022-10-20T06:44:09.788Z,87
2022-10-20T06:45:17.820Z,87
2022-10-20T06:46:24.018Z,87
2022-10-20T06:47:31.146Z,87
2022-10-20T06:48:37.660Z,87
2022-10-20T06:49:44.742Z,87
2022-10-20T06:51:59.247Z,87
2022-10-20T06:53:05.603Z,87
2022-10-20T06:54:12.638Z,87
2022-10-20T06:55:19.789Z,87
2022-10-20T06:56:26.930Z,87
2022-10-20T06:57:34.002Z,87
2022-10-20T06:58:41.586Z,87
2022-10-20T06:59:47.684Z,87
2022-10-20T07:00:54.862Z,88
2022-10-20T07:02:02.122Z,88
2022-10-20T07:03:09.030Z,88
2022-10-20T07:04:16.158Z,88
2022-10-20T07:05:22.700Z,88
2022-10-20T07:06:29.841Z,88
2022-10-20T07:08:43.546Z,88
2022-10-20T07:09:50.598Z,88
2022-10-20T07:10:57.772Z,88
2022-10-20T07:12:04.891Z,88
2022-10-20T07:13:11.928Z,88
2022-10-20T07:14:19.591Z,88
2022-10-20T07:15:25.639Z,88
2022-10-20T07:16:32.720Z,88
2022-10-20T07:17:39.895Z,89
2022-10-20T07:18:46.913Z,89
2022-10-20T07:19:54.050Z,89
2022-10-20T07:21:00.630Z,89
2022-10-20T07:22:07.868Z,89
2022-10-20T07:23:14.860Z,89
2022-10-20T07:24:21.960Z,89
2022-10-20T07:25:29.037Z,89
2022-10-20T07:26:36.182Z,89
2022-10-20T07:27:42.771Z,89
2022-10-20T07:28:55.397Z,89
2022-10-20T07:29:56.995Z,89
2022-10-20T07:31:04.584Z,89
2022-10-20T07:33:17.841Z,89
2022-10-20T07:34:26.766Z,89
2022-10-20T07:35:31.990Z,89
2022-10-20T07:36:39.197Z,89
2022-10-20T07:37:45.681Z,89
2022-10-20T07:38:52.802Z,89
2022-10-20T07:39:59.839Z,89
2022-10-20T07:41:06.992Z,89
2022-10-20T07:42:14.156Z,89
2022-10-20T07:43:20.649Z,89
2022-10-20T07:44:27.813Z,89
2022-10-20T07:45:34.927Z,89
2022-10-20T07:46:41.945Z,88
2022-10-20T07:47:49.062Z,89
2022-10-20T07:49:02.797Z,89
2022-10-20T07:50:02.768Z,89
2022-10-20T07:51:09.915Z,89
2022-10-20T07:52:17.059Z,88
2022-10-20T07:53:23.585Z,88
2022-10-20T07:56:44.971Z,88
2022-10-20T07:57:51.941Z,88
2022-10-20T07:58:58.562Z,88
2022-10-20T08:00:05.730Z,88
2022-10-20T08:01:12.783Z,88
2022-10-20T08:02:19.922Z,88
2022-10-20T08:03:27.030Z,88
2022-10-20T08:04:33.538Z,88
2022-10-20T08:05:40.646Z,88
2022-10-20T08:06:47.875Z,88
2022-10-20T08:07:54.893Z,88
2022-10-20T08:09:02.006Z,88
2022-10-20T08:10:08.583Z,88
2022-10-20T08:11:15.701Z,88
2022-10-20T08:12:22.751Z,88
2022-10-20T08:13:30.024Z,88
2022-10-20T08:14:37.040Z,88
2022-10-20T08:15:43.848Z,88
2022-10-20T08:16:50.778Z,88
2022-10-20T08:17:57.826Z,88
2022-10-20T08:19:05.256Z,88
2022-10-20T08:20:12.324Z,88
2022-10-20T08:21:18.598Z,88
2022-10-20T08:23:32.933Z,88
2022-10-20T08:24:39.967Z,88
2022-10-20T08:25:47.039Z,88
2022-10-20T08:26:53.652Z,88
2022-10-20T08:28:00.697Z,88
2022-10-20T08:29:07.860Z,88
2022-10-20T08:30:23.913Z,88
2022-10-20T08:31:21.521Z,88
2022-10-20T08:32:29.168Z,88
2022-10-20T08:33:35.748Z,88
2022-10-20T08:34:42.810Z,88
2022-10-20T08:36:57.099Z,88
2022-10-20T08:38:03.627Z,88
2022-10-20T08:39:10.711Z,88
2022-10-20T08:40:17.841Z,88
2022-10-20T08:41:25.037Z,89
2022-10-20T08:42:31.998Z,89
2022-10-20T08:43:38.635Z,89
2022-10-20T08:44:45.720Z,89
2022-10-20T08:45:52.795Z,88
2022-10-20T08:47:00.040Z,89
2022-10-20T08:48:07.094Z,89
2022-10-20T08:49:13.648Z,88
2022-10-20T08:50:20.941Z,89
2022-10-20T08:51:27.849Z,88
2022-10-20T08:52:35.706Z,89
2022-10-20T08:53:42.057Z,89
2022-10-20T08:54:48.660Z,88
2022-10-20T08:55:55.752Z,89
2022-10-20T08:57:02.873Z,89
2022-10-20T08:58:10.001Z,89
2022-10-20T08:59:17.015Z,89
2022-10-20T09:00:23.615Z,89
2022-10-20T09:01:30.846Z,89
2022-10-20T09:02:37.881Z,89
2022-10-20T09:03:44.997Z,89
2022-10-20T09:04:52.056Z,89
2022-10-20T09:05:58.701Z,89
2022-10-20T09:07:05.821Z,89
2022-10-20T09:08:12.852Z,89
2022-10-20T09:09:19.971Z,89
2022-10-20T09:10:26.559Z,89
2022-10-20T09:11:33.665Z,89
2022-10-20T09:12:40.283Z,89
2022-10-20T09:14:54.967Z,89
2022-10-20T09:16:01.569Z,89
2022-10-20T09:17:11.410Z,89
2022-10-20T09:18:15.769Z,89
2022-10-20T09:19:22.917Z,89
2022-10-20T09:20:30.023Z,89
2022-10-20T09:21:36.648Z,90
2022-10-20T09:22:43.638Z,90
2022-10-20T09:24:58.415Z,90
2022-10-20T09:26:05.035Z,90
2022-10-20T09:27:11.704Z,90
2022-10-20T09:28:18.749Z,90
2022-10-20T09:29:25.861Z,91
2022-10-20T09:30:32.904Z,91
2022-10-20T09:31:40.041Z,91
2022-10-20T09:32:47.797Z,91
2022-10-20T09:33:54.018Z,91
2022-10-20T09:35:00.788Z,91
2022-10-20T09:36:07.933Z,91
2022-10-20T09:37:15.103Z,92
2022-10-20T09:38:21.649Z,92
2022-10-20T09:40:35.869Z,92
2022-10-20T09:41:42.979Z,92
2022-10-20T09:42:50.061Z,92
2022-10-20T09:43:58.046Z,92
2022-10-20T09:45:03.776Z,92
2022-10-20T09:46:10.799Z,92
2022-10-20T09:47:17.962Z,92
2022-10-20T09:48:25.020Z,92
2022-10-20T09:49:31.655Z,92
2022-10-20T09:50:38.728Z,92
2022-10-20T09:51:45.924Z,92
2022-10-20T09:53:59.530Z,92
2022-10-20T09:55:06.659Z,92
2022-10-20T09:56:13.679Z,92
2022-10-20T09:57:20.840Z,92
2022-10-20T09:58:27.972Z,92
2022-10-20T09:59:35.082Z,92
2022-10-20T10:01:48.863Z,92
2022-10-20T10:02:55.833Z,92
2022-10-20T10:04:06.810Z,92
2022-10-20T10:05:10.096Z,92
2022-10-20T10:06:16.673Z,92
2022-10-20T10:07:23.731Z,92
2022-10-20T10:08:30.902Z,92
2022-10-20T10:09:38.008Z,92
2022-10-20T10:10:44.529Z,92
2022-10-20T10:11:51.721Z,92
2022-10-20T10:12:58.788Z,92
2022-10-20T10:14:05.909Z,92
2022-10-20T10:15:12.918Z,92
2022-10-20T10:16:19.586Z,92
2022-10-20T10:17:26.689Z,92
2022-10-20T10:18:33.784Z,92
2022-10-20T10:19:40.848Z,92
2022-10-20T10:21:54.603Z,92
2022-10-20T10:23:01.633Z,92
2022-10-20T10:24:08.821Z,92
2022-10-20T10:25:15.921Z,92
2022-10-20T10:26:22.936Z,92
2022-10-20T10:27:29.543Z,92
2022-10-20T10:28:36.642Z,92
2022-10-20T10:29:43.858Z,91
2022-10-20T10:30:50.890Z,91
2022-10-20T10:31:58.105Z,91
2022-10-20T10:33:04.662Z,91
2022-10-20T10:34:11.695Z,91
2022-10-20T10:36:26.082Z,91
2022-10-20T10:37:35.002Z,91
2022-10-20T10:38:39.610Z,91
2022-10-20T10:39:46.697Z,91
2022-10-20T10:40:53.816Z,91
2022-10-20T10:42:01.006Z,91
2022-10-20T10:44:14.585Z,91
2022-10-20T10:45:21.657Z,91
2022-10-20T10:46:28.778Z,91
2022-10-20T10:47:39.381Z,91
2022-10-20T10:49:49.629Z,91
2022-10-20T10:50:56.740Z,90
2022-10-20T10:52:03.755Z,90
2022-10-20T10:53:11.531Z,91
2022-10-20T10:54:18.055Z,91
2022-10-20T10:55:47.706Z,90
2022-10-20T10:56:31.676Z,90
2022-10-20T10:57:39.234Z,90
2022-10-20T10:58:45.941Z,90
2022-10-20T10:59:52.982Z,90
2022-10-20T11:00:59.674Z,90
2022-10-20T11:02:06.724Z,90
2022-10-20T11:03:13.767Z,90
2022-10-20T11:04:20.953Z,90
2022-10-20T11:05:28.025Z,90
2022-10-20T11:06:34.687Z,90
2022-10-20T11:07:41.674Z,90
2022-10-20T11:08:48.920Z,90
2022-10-20T11:09:55.980Z,90
2022-10-20T11:11:03.039Z,90
2022-10-20T11:12:09.577Z,90
2022-10-20T11:13:16.831Z,90
2022-10-20T11:14:23.868Z,90
2022-10-20T11:15:30.961Z,90
2022-10-20T11:17:44.752Z,90
2022-10-20T11:18:51.685Z,90
2022-10-20T11:19:58.851Z,90
2022-10-20T11:21:05.936Z,90
2022-10-20T11:22:14.341Z,90
2022-10-20T11:23:19.687Z,90
2022-10-20T11:24:26.864Z,90
2022-10-20T11:25:33.879Z,90
2022-10-20T11:26:41.010Z,90
2022-10-20T11:27:47.487Z,90
2022-10-20T11:30:01.704Z,90
2022-10-20T11:31:09.031Z,89
2022-10-20T11:32:16.160Z,90
2022-10-20T11:33:22.598Z,89
2022-10-20T11:34:29.793Z,89
2022-10-20T11:35:36.968Z,89
2022-10-20T11:36:43.921Z,89
2022-10-20T11:37:50.921Z,89
2022-10-20T11:38:57.507Z,89
2022-10-20T11:40:07.765Z,89
2022-10-20T11:41:11.834Z,89
2022-10-20T11:42:19.081Z,89
2022-10-20T11:43:26.069Z,89
2022-10-20T11:44:32.661Z,89
2022-10-20T11:45:39.759Z,89
2022-10-20T11:47:53.934Z,89
2022-10-20T11:49:03.262Z,89
2022-10-20T11:50:07.615Z,89
2022-10-20T11:51:14.267Z,89
2022-10-20T11:52:21.865Z,89
2022-10-20T11:53:28.980Z,89
2022-10-20T11:54:35.984Z,89
2022-10-20T11:55:42.616Z,89
2022-10-20T11:56:49.735Z,89
2022-10-20T11:59:03.841Z,89
2022-10-20T12:00:11.214Z,89
2022-10-20T12:01:17.704Z,89
2022-10-20T12:02:24.688Z,89
2022-10-20T12:03:31.867Z,89
2022-10-20T12:04:38.920Z,89
2022-10-20T12:05:46.004Z,89
2022-10-20T12:06:52.858Z,89
2022-10-20T12:08:17.543Z,89
2022-10-20T12:09:06.828Z,89
2022-10-20T12:10:13.885Z,88
2022-10-20T12:11:20.978Z,88
2022-10-20T12:12:27.812Z,88
2022-10-20T12:13:34.898Z,88
2022-10-20T12:14:41.884Z,88
2022-10-20T12:15:49.061Z,88
2022-10-20T12:16:56.127Z,88
2022-10-20T12:18:02.700Z,88
2022-10-20T12:20:16.918Z,88
2022-10-20T12:21:24.001Z,88
2022-10-20T12:22:30.739Z,88
2022-10-20T12:23:37.612Z,88
2022-10-20T12:24:44.825Z,88
2022-10-20T12:25:51.973Z,88
2022-10-20T12:26:58.933Z,88
2022-10-20T12:28:05.729Z,88
2022-10-20T12:29:12.574Z,88
2022-10-20T12:30:19.982Z,88
2022-10-20T12:31:26.791Z,88
2022-10-20T12:32:35.994Z,88
2022-10-20T12:33:40.765Z,88
2022-10-20T12:34:47.797Z,88
2022-10-20T12:35:54.812Z,87
2022-10-20T12:38:09.095Z,87
2022-10-20T12:40:22.985Z,87
2022-10-20T12:41:29.726Z,87
2022-10-20T12:42:37.025Z,87
2022-10-20T12:43:43.931Z,87
2022-10-20T12:44:50.655Z,87
2022-10-20T12:45:57.855Z,87
2022-10-20T12:48:11.819Z,87
2022-10-20T12:49:18.914Z,87
2022-10-20T12:51:32.926Z,87
2022-10-20T12:52:39.906Z,87
2022-10-20T12:53:47.033Z,87
2022-10-20T12:54:54.011Z,87
2022-10-20T12:56:00.633Z,87
2022-10-20T12:58:14.741Z,87
2022-10-20T12:59:21.895Z,87
2022-10-20T13:00:29.091Z,87
2022-10-20T13:01:35.612Z,87
2022-10-20T13:02:42.780Z,87
2022-10-20T13:03:49.769Z,87
2022-10-20T13:04:56.932Z,87
2022-10-20T13:06:03.967Z,87
2022-10-20T13:07:10.624Z,87
2022-10-20T13:08:17.735Z,87
2022-10-20T13:09:24.840Z,87
2022-10-20T13:10:31.915Z,87
2022-10-20T13:11:39.091Z,87
2022-10-20T13:12:45.637Z,87
2022-10-20T13:13:52.724Z,87
2022-10-20T13:16:06.973Z,86
2022-10-20T13:17:14.155Z,86
2022-10-20T13:18:20.647Z,86
2022-10-20T13:19:27.802Z,86
2022-10-20T13:21:44.089Z,86
2022-10-20T13:22:49.377Z,86
2022-10-20T13:23:55.649Z,86
2022-10-20T13:25:02.747Z,86
2022-10-20T13:26:09.834Z,86
2022-10-20T13:27:17.051Z,86
2022-10-20T13:28:23.530Z,86
2022-10-20T13:29:30.548Z,86
2022-10-20T13:30:37.744Z,86
2022-10-20T13:31:44.859Z,86
2022-10-20T13:33:10.927Z,86
2022-10-20T13:34:04.257Z,86
2022-10-20T13:35:05.683Z,86
2022-10-20T13:36:12.671Z,86
2022-10-20T13:37:22.716Z,86
2022-10-20T13:38:26.991Z,86
2022-10-20T13:39:33.577Z,86
2022-10-20T13:40:40.636Z,86
2022-10-20T13:41:48.105Z,86
2022-10-20T13:44:04.276Z,86
2022-10-20T13:45:08.586Z,86
2022-10-20T13:46:15.685Z,86
2022-10-20T13:47:22.678Z,86
2022-10-20T13:48:30.086Z,86
2022-10-20T13:49:36.937Z,86
2022-10-20T13:50:43.595Z,86
2022-10-20T13:51:50.717Z,86
2022-10-20T13:52:57.851Z,86
2022-10-20T13:55:12.042Z,86
2022-10-20T13:56:18.518Z,85
2022-10-20T13:57:25.805Z,85
2022-10-20T13:58:32.822Z,85
2022-10-20T13:59:41.889Z,85
2022-10-20T14:00:47.194Z,85
2022-10-20T14:03:00.937Z,85
2022-10-20T14:04:07.750Z,85
2022-10-20T14:05:15.019Z,85
2022-10-20T14:06:21.930Z,85
2022-10-20T14:07:28.653Z,85
2022-10-20T14:08:35.730Z,86
2022-10-20T14:09:46.597Z,86
2022-10-20T14:11:56.922Z,86
2022-10-20T14:13:03.505Z,86
2022-10-20T14:14:10.789Z,86
2022-10-20T14:15:17.765Z,86
2022-10-20T14:16:25.036Z,86
2022-10-20T14:17:32.127Z,86
2022-10-20T14:18:38.741Z,86
2022-10-20T14:19:46.841Z,86
2022-10-20T14:20:52.823Z,86
2022-10-20T14:22:00.006Z,86
2022-10-20T14:23:07.063Z,87
2022-10-20T14:24:13.585Z,87
2022-10-20T14:26:27.775Z,87
2022-10-20T14:27:35.493Z,87
2022-10-20T14:28:42.051Z,87
2022-10-20T14:29:48.554Z,87
2022-10-20T14:30:55.779Z,87
2022-10-20T14:32:02.876Z,87
2022-10-20T14:33:10.079Z,87
2022-10-20T14:34:17.076Z,87
2022-10-20T14:35:23.636Z,87
2022-10-20T14:36:30.760Z,87
2022-10-20T14:37:38.130Z,87
2022-10-20T14:39:51.441Z,87
2022-10-20T14:40:58.684Z,87
2022-10-20T14:42:05.880Z,87
2022-10-20T14:44:30.768Z,87
2022-10-20T14:45:26.662Z,87
2022-10-20T14:46:33.633Z,87
2022-10-20T14:47:40.952Z,87
2022-10-20T14:48:47.864Z,87
2022-10-20T14:49:55.001Z,87
2022-10-20T14:51:01.596Z,87
2022-10-20T14:52:12.325Z,87
2022-10-20T14:53:15.786Z,87
2022-10-20T14:54:22.943Z,88
2022-10-20T14:55:29.991Z,88
2022-10-20T14:56:36.506Z,88
2022-10-20T14:58:50.821Z,88
2022-10-20T14:59:57.813Z,88
2022-10-20T15:01:04.894Z,88
2022-10-20T15:02:11.749Z,88
2022-10-20T15:03:18.655Z,88
2022-10-20T15:04:25.699Z,88
2022-10-20T15:05:32.905Z,88
2022-10-20T15:06:40.032Z,88
2022-10-20T15:07:46.602Z,89
2022-10-20T15:08:53.836Z,89
2022-10-20T15:10:05.171Z,89
2022-10-20T15:11:07.923Z,89
2022-10-20T15:12:15.007Z,89
2022-10-20T15:13:25.100Z,89
2022-10-20T15:14:28.731Z,89
2022-10-20T15:15:35.837Z,89
2022-10-20T15:16:42.799Z,89
2022-10-20T15:17:50.181Z,90
2022-10-20T15:18:56.550Z,90
2022-10-20T15:20:03.762Z,90
2022-10-20T15:21:10.799Z,90
2022-10-20T15:22:18.086Z,90
2022-10-20T15:23:24.948Z,90
2022-10-20T15:25:38.785Z,90
2022-10-20T15:26:45.928Z,90
2022-10-20T15:27:53.110Z,90
2022-10-20T15:29:00.470Z,91
2022-10-20T15:30:06.678Z,91
2022-10-20T15:31:13.740Z,91
2022-10-20T15:32:20.852Z,91
2022-10-20T15:33:27.871Z,91
2022-10-20T15:34:34.591Z,91
2022-10-20T15:35:41.513Z,91
2022-10-20T15:36:51.025Z,91
2022-10-20T15:37:55.903Z,91
2022-10-20T15:39:02.844Z,91
2022-10-20T15:40:09.572Z,91
2022-10-20T15:41:16.192Z,91
2022-10-20T15:42:23.867Z,91
2022-10-20T15:43:30.854Z,92
2022-10-20T15:44:37.856Z,92
2022-10-20T15:45:44.597Z,92
2022-10-20T15:46:51.529Z,92
2022-10-20T15:47:58.677Z,92
2022-10-20T15:49:05.943Z,92
2022-10-20T15:50:13.030Z,92
2022-10-20T15:51:19.541Z,92
2022-10-20T15:52:26.808Z,92
2022-10-20T15:54:40.764Z,92
2022-10-20T15:55:47.880Z,92
2022-10-20T15:56:54.596Z,92
2022-10-20T15:58:01.823Z,92
2022-10-20T15:59:08.673Z,92
2022-10-20T16:00:15.932Z,92
2022-10-20T16:02:29.478Z,92
2022-10-20T16:03:36.710Z,92
2022-10-20T16:04:43.653Z,92
2022-10-20T16:07:02.598Z,92
2022-10-20T16:08:04.787Z,92
2022-10-20T16:10:18.780Z,92
2022-10-20T16:11:25.942Z,91
2022-10-20T16:12:36.317Z,91
2022-10-20T16:13:39.499Z,91
2022-10-20T16:14:46.711Z,91
2022-10-20T16:15:53.769Z,91
2022-10-20T16:17:00.880Z,91
2022-10-20T16:18:09.850Z,91
2022-10-20T16:19:14.664Z,91
2022-10-20T16:20:21.574Z,91
2022-10-20T16:21:28.724Z,91
2022-10-20T16:22:36.456Z,91
2022-10-20T16:23:44.867Z,91
2022-10-20T16:24:49.618Z,91
2022-10-20T16:25:56.648Z,91
2022-10-20T16:28:11.102Z,91
2022-10-20T16:29:18.069Z,91
2022-10-20T16:30:24.639Z,91
2022-10-20T16:31:31.597Z,91
2022-10-20T16:32:39.100Z,91
2022-10-20T16:33:46.015Z,91
2022-10-20T16:34:53.058Z,91
2022-10-20T16:35:59.714Z,91
2022-10-20T16:37:06.218Z,91
2022-10-20T16:38:13.867Z,90
2022-10-20T16:39:20.952Z,90
2022-10-20T16:40:28.130Z,90
2022-10-20T16:41:34.669Z,90
2022-10-20T16:42:41.724Z,90
2022-10-20T16:43:48.881Z,90
2022-10-20T16:44:55.934Z,90
2022-10-20T16:46:02.580Z,90
2022-10-20T16:48:16.722Z,90
2022-10-20T16:49:23.820Z,90
2022-10-20T16:50:30.979Z,90
2022-10-20T16:51:37.567Z,90
2022-10-20T16:52:44.659Z,90
2022-10-20T16:53:51.631Z,90
2022-10-20T16:54:58.926Z,90
2022-10-20T16:56:05.870Z,90
2022-10-20T16:57:12.537Z,90
2022-10-20T16:58:19.842Z,90
2022-10-20T16:59:26.625Z,90
2022-10-20T17:00:33.980Z,90
2022-10-20T17:01:40.847Z,90
2022-10-20T17:02:47.549Z,90
2022-10-20T17:03:54.730Z,90
2022-10-20T17:06:08.950Z,90
2022-10-20T17:07:15.897Z,90
2022-10-20T17:08:22.720Z,90
2022-10-20T17:09:29.531Z,89
2022-10-20T17:10:36.747Z,90
2022-10-20T17:11:43.877Z,89
2022-10-20T17:12:51.378Z,89
2022-10-20T17:13:57.581Z,89
2022-10-20T17:15:04.775Z,89
2022-10-20T17:16:11.822Z,89